createdAt,value
2022-09-21T00:00:17.531Z,1005.17
2022-09-21T00:01:17.671Z,1005.15
2022-09-21T00:02:17.525Z,1005.21
2022-09-21T00:03:17.497Z,1005.21
2022-09-21T00:04:17.480Z,1005.26
2022-09-21T00:05:17.470Z,1005.24
2022-09-21T00:06:17.455Z,1005.25
2022-09-21T00:07:17.445Z,1005.21
2022-09-21T00:09:17.419Z,1005.22
2022-09-21T00:10:17.406Z,1005.23
2022-09-21T00:11:17.393Z,1005.22
2022-09-21T00:12:17.383Z,1005.23
2022-09-21T00:13:17.368Z,1005.25
2022-09-21T00:14:17.357Z,1005.22
2022-09-21T00:15:17.365Z,1005.27
2022-09-21T00:16:17.401Z,1005.24
2022-09-21T00:17:17.318Z,1005.27
2022-09-21T00:18:17.307Z,1005.22
2022-09-21T00:20:17.286Z,1005.24
2022-09-21T00:21:17.267Z,1005.33
2022-09-21T00:22:17.257Z,1005.30
2022-09-21T00:23:17.243Z,1005.27
2022-09-21T00:24:17.235Z,1005.27
2022-09-21T00:25:17.218Z,1005.33
2022-09-21T00:26:17.207Z,1005.32
2022-09-21T00:27:17.193Z,1005.29
2022-09-21T00:28:17.181Z,1005.33
2022-09-21T00:29:17.166Z,1005.34
2022-09-21T00:31:17.286Z,1005.28
2022-09-21T00:32:17.129Z,1005.31
2022-09-21T00:33:17.116Z,1005.31
2022-09-21T00:34:17.106Z,1005.29
2022-09-21T00:35:17.093Z,1005.27
2022-09-21T00:36:17.079Z,1005.28
2022-09-21T00:37:17.065Z,1005.32
2022-09-21T00:38:17.055Z,1005.31
2022-09-21T00:39:17.044Z,1005.32
2022-09-21T00:40:17.076Z,1005.30
2022-09-21T00:42:17.004Z,1005.33
2022-09-21T00:43:16.990Z,1005.27
2022-09-21T00:44:16.983Z,1005.33
2022-09-21T00:45:16.965Z,1005.33
2022-09-21T00:46:16.954Z,1005.33
2022-09-21T00:47:16.963Z,1005.31
2022-09-21T00:48:16.931Z,1005.36
2022-09-21T00:49:16.917Z,1005.33
2022-09-21T00:50:16.905Z,1005.33
2022-09-21T00:51:16.893Z,1005.33
2022-09-21T00:53:16.868Z,1005.33
2022-09-21T00:54:16.856Z,1005.37
2022-09-21T00:55:16.841Z,1005.41
2022-09-21T00:56:16.830Z,1005.40
2022-09-21T00:57:16.816Z,1005.41
2022-09-21T00:58:16.805Z,1005.36
2022-09-21T00:59:19.890Z,1005.37
2022-09-21T01:00:16.781Z,1005.39
2022-09-21T01:01:16.813Z,1005.38
2022-09-21T01:02:16.857Z,1005.40
2022-09-21T01:04:16.730Z,1005.42
2022-09-21T01:05:16.717Z,1005.41
2022-09-21T01:06:16.704Z,1005.39
2022-09-21T01:07:16.693Z,1005.42
2022-09-21T01:08:16.681Z,1005.47
2022-09-21T01:09:16.667Z,1005.44
2022-09-21T01:10:16.657Z,1005.43
2022-09-21T01:11:16.642Z,1005.43
2022-09-21T01:12:16.631Z,1005.45
2022-09-21T01:13:16.617Z,1005.42
2022-09-21T01:15:16.592Z,1005.42
2022-09-21T01:16:16.628Z,1005.44
2022-09-21T01:17:16.567Z,1005.41
2022-09-21T01:18:16.554Z,1005.46
2022-09-21T01:19:16.565Z,1005.49
2022-09-21T01:20:16.536Z,1005.49
2022-09-21T01:21:16.517Z,1005.46
2022-09-21T01:22:16.505Z,1005.45
2022-09-21T01:23:16.490Z,1005.47
2022-09-21T01:24:16.478Z,1005.43
2022-09-21T01:26:16.454Z,1005.45
2022-09-21T01:27:16.440Z,1005.44
2022-09-21T01:28:16.431Z,1005.47
2022-09-21T01:29:16.414Z,1005.50
2022-09-21T01:30:16.404Z,1005.49
2022-09-21T01:31:16.447Z,1005.46
2022-09-21T01:32:16.382Z,1005.47
2022-09-21T01:33:16.364Z,1005.50
2022-09-21T01:34:16.357Z,1005.50
2022-09-21T01:35:16.480Z,1005.58
2022-09-21T01:37:16.313Z,1005.48
2022-09-21T01:38:16.301Z,1005.50
2022-09-21T01:39:16.287Z,1005.48
2022-09-21T01:40:16.296Z,1005.51
2022-09-21T01:41:16.262Z,1005.51
2022-09-21T01:42:16.251Z,1005.53
2022-09-21T01:43:16.240Z,1005.53
2022-09-21T01:44:16.224Z,1005.51
2022-09-21T01:45:16.211Z,1005.53
2022-09-21T01:46:16.200Z,1005.55
2022-09-21T01:48:16.174Z,1005.52
2022-09-21T01:49:16.163Z,1005.50
2022-09-21T01:50:16.150Z,1005.51
2022-09-21T01:51:16.160Z,1005.58
2022-09-21T01:52:16.124Z,1005.50
2022-09-21T01:53:16.110Z,1005.49
2022-09-21T01:54:16.100Z,1005.55
2022-09-21T01:55:16.086Z,1005.55
2022-09-21T01:56:16.074Z,1005.54
2022-09-21T01:57:16.064Z,1005.55
2022-09-21T01:59:16.036Z,1005.59
2022-09-21T02:00:16.031Z,1005.58
2022-09-21T02:01:16.085Z,1005.53
2022-09-21T02:02:16.122Z,1005.55
2022-09-21T02:03:15.984Z,1005.58
2022-09-21T02:04:15.978Z,1005.54
2022-09-21T02:05:15.961Z,1005.49
2022-09-21T02:06:15.949Z,1005.56
2022-09-21T02:07:15.956Z,1005.52
2022-09-21T02:08:15.923Z,1005.53
2022-09-21T02:10:15.899Z,1005.54
2022-09-21T02:11:15.885Z,1005.53
2022-09-21T02:12:19.113Z,1005.55
2022-09-21T02:13:15.860Z,1005.54
2022-09-21T02:14:15.848Z,1005.49
2022-09-21T02:15:15.849Z,1005.45
2022-09-21T02:16:15.851Z,1005.45
2022-09-21T02:17:15.809Z,1005.50
2022-09-21T02:18:15.798Z,1005.44
2022-09-21T02:19:15.782Z,1005.46
2022-09-21T02:21:15.760Z,1005.47
2022-09-21T02:22:15.746Z,1005.47
2022-09-21T02:23:15.755Z,1005.47
2022-09-21T02:24:15.720Z,1005.48
2022-09-21T02:25:15.708Z,1005.50
2022-09-21T02:26:15.696Z,1005.45
2022-09-21T02:27:15.682Z,1005.49
2022-09-21T02:28:15.670Z,1005.49
2022-09-21T02:29:15.656Z,1005.50
2022-09-21T02:30:15.653Z,1005.47
2022-09-21T02:32:15.620Z,1005.43
2022-09-21T02:33:15.606Z,1005.45
2022-09-21T02:34:15.595Z,1005.43
2022-09-21T02:35:15.583Z,1005.40
2022-09-21T02:36:15.570Z,1005.43
2022-09-21T02:37:15.558Z,1005.41
2022-09-21T02:38:15.544Z,1005.45
2022-09-21T02:39:15.554Z,1005.39
2022-09-21T02:40:15.590Z,1005.44
2022-09-21T02:41:15.506Z,1005.49
2022-09-21T02:43:15.479Z,1005.45
2022-09-21T02:44:15.471Z,1005.49
2022-09-21T02:45:15.457Z,1005.48
2022-09-21T02:46:15.520Z,1005.44
2022-09-21T02:47:15.435Z,1005.47
2022-09-21T02:48:15.419Z,1005.42
2022-09-21T02:49:15.404Z,1005.40
2022-09-21T02:50:15.396Z,1005.45
2022-09-21T02:51:15.379Z,1005.45
2022-09-21T02:52:15.368Z,1005.47
2022-09-21T02:54:15.343Z,1005.46
2022-09-21T02:55:15.352Z,1005.41
2022-09-21T02:56:15.317Z,1005.43
2022-09-21T02:57:15.305Z,1005.51
2022-09-21T02:58:15.292Z,1005.48
2022-09-21T02:59:15.279Z,1005.43
2022-09-21T03:00:15.268Z,1005.45
2022-09-21T03:01:15.254Z,1005.37
2022-09-21T03:02:15.290Z,1005.44
2022-09-21T03:03:15.229Z,1005.39
2022-09-21T03:05:15.205Z,1005.35
2022-09-21T03:06:15.194Z,1005.42
2022-09-21T03:07:15.180Z,1005.32
2022-09-21T03:08:15.170Z,1005.43
2022-09-21T03:09:15.154Z,1005.39
2022-09-21T03:10:15.142Z,1005.42
2022-09-21T03:11:15.152Z,1005.42
2022-09-21T03:12:15.117Z,1005.45
2022-09-21T03:13:15.104Z,1005.43
2022-09-21T03:14:15.092Z,1005.44
2022-09-21T03:16:15.102Z,1005.51
2022-09-21T03:17:15.054Z,1005.46
2022-09-21T03:18:15.055Z,1005.46
2022-09-21T03:19:15.034Z,1005.44
2022-09-21T03:20:15.015Z,1005.47
2022-09-21T03:21:15.000Z,1005.47
2022-09-21T03:22:14.990Z,1005.43
2022-09-21T03:23:14.976Z,1005.54
2022-09-21T03:24:14.965Z,1005.53
2022-09-21T03:25:14.950Z,1005.58
2022-09-21T03:27:14.948Z,1005.58
2022-09-21T03:28:14.921Z,1005.59
2022-09-21T03:29:14.899Z,1005.60
2022-09-21T03:30:14.887Z,1005.59
2022-09-21T03:31:14.897Z,1005.56
2022-09-21T03:32:14.862Z,1005.58
2022-09-21T03:33:14.848Z,1005.59
2022-09-21T03:34:14.837Z,1005.60
2022-09-21T03:35:14.823Z,1005.61
2022-09-21T03:36:14.812Z,1005.59
2022-09-21T03:38:14.786Z,1005.62
2022-09-21T03:39:14.772Z,1005.64
2022-09-21T03:40:14.819Z,1005.63
2022-09-21T03:41:14.747Z,1005.60
2022-09-21T03:42:14.737Z,1005.67
2022-09-21T03:43:14.743Z,1005.68
2022-09-21T03:44:14.711Z,1005.60
2022-09-21T03:45:14.697Z,1005.71
2022-09-21T03:46:14.723Z,1005.67
2022-09-21T03:47:14.672Z,1005.70
2022-09-21T03:49:14.646Z,1005.62
2022-09-21T03:50:14.634Z,1005.68
2022-09-21T03:51:14.622Z,1005.71
2022-09-21T03:52:14.609Z,1005.63
2022-09-21T03:53:14.596Z,1005.66
2022-09-21T03:54:14.584Z,1005.64
2022-09-21T03:55:14.571Z,1005.67
2022-09-21T03:56:14.559Z,1005.65
2022-09-21T03:57:14.545Z,1005.66
2022-09-21T03:58:14.536Z,1005.66
2022-09-21T04:00:14.509Z,1005.60
2022-09-21T04:01:14.574Z,1005.61
2022-09-21T04:02:14.665Z,1005.68
2022-09-21T04:03:14.470Z,1005.63
2022-09-21T04:04:14.462Z,1005.62
2022-09-21T04:05:14.446Z,1005.67
2022-09-21T04:06:14.434Z,1005.65
2022-09-21T04:07:14.421Z,1005.66
2022-09-21T04:08:14.410Z,1005.69
2022-09-21T04:09:14.396Z,1005.66
2022-09-21T04:11:14.371Z,1005.65
2022-09-21T04:12:14.361Z,1005.65
2022-09-21T04:13:14.345Z,1005.65
2022-09-21T04:14:14.335Z,1005.65
2022-09-21T04:15:14.343Z,1005.66
2022-09-21T04:16:14.382Z,1005.68
2022-09-21T04:17:14.297Z,1005.71
2022-09-21T04:18:14.285Z,1005.71
2022-09-21T04:19:14.275Z,1005.72
2022-09-21T04:20:14.262Z,1005.74
2022-09-21T04:22:14.235Z,1005.74
2022-09-21T04:23:14.220Z,1005.71
2022-09-21T04:24:14.210Z,1005.75
2022-09-21T04:25:14.199Z,1005.76
2022-09-21T04:26:14.184Z,1005.74
2022-09-21T04:27:14.173Z,1005.72
2022-09-21T04:28:14.159Z,1005.81
2022-09-21T04:29:14.148Z,1005.76
2022-09-21T04:30:14.134Z,1005.76
2022-09-21T04:31:14.212Z,1005.77
2022-09-21T04:33:14.098Z,1005.77
2022-09-21T04:34:14.085Z,1005.76
2022-09-21T04:35:14.073Z,1005.78
2022-09-21T04:36:14.059Z,1005.73
2022-09-21T04:37:14.048Z,1005.77
2022-09-21T04:38:14.033Z,1005.76
2022-09-21T04:39:14.022Z,1005.79
2022-09-21T04:40:14.041Z,1005.79
2022-09-21T04:41:13.998Z,1005.76
2022-09-21T04:42:13.983Z,1005.72
2022-09-21T04:44:13.959Z,1005.81
2022-09-21T04:45:13.946Z,1005.79
2022-09-21T04:46:13.970Z,1005.85
2022-09-21T04:47:14.020Z,1005.79
2022-09-21T04:48:13.908Z,1005.82
2022-09-21T04:49:13.898Z,1005.83
2022-09-21T04:50:13.884Z,1005.86
2022-09-21T04:51:13.872Z,1005.90
2022-09-21T04:52:18.852Z,1005.85
2022-09-21T04:53:13.848Z,1005.83
2022-09-21T04:55:13.822Z,1005.85
2022-09-21T04:56:13.808Z,1005.88
2022-09-21T04:57:13.798Z,1005.80
2022-09-21T04:58:13.783Z,1005.82
2022-09-21T04:59:13.771Z,1005.87
2022-09-21T05:00:13.759Z,1005.87
2022-09-21T05:01:13.768Z,1005.88
2022-09-21T05:02:13.733Z,1005.84
2022-09-21T05:03:13.874Z,1005.85
2022-09-21T05:04:13.706Z,1005.89
2022-09-21T05:06:13.681Z,1005.90
2022-09-21T05:07:13.671Z,1005.90
2022-09-21T05:08:13.655Z,1005.88
2022-09-21T05:09:13.644Z,1005.96
2022-09-21T05:10:13.634Z,1005.91
2022-09-21T05:11:13.618Z,1005.96
2022-09-21T05:12:13.604Z,1005.98
2022-09-21T05:13:16.715Z,1005.97
2022-09-21T05:14:13.577Z,1006.00
2022-09-21T05:15:13.565Z,1006.00
2022-09-21T05:17:13.540Z,1006.02
2022-09-21T05:18:13.526Z,1006.01
2022-09-21T05:19:13.576Z,1006.02
2022-09-21T05:20:13.500Z,1006.05
2022-09-21T05:21:13.491Z,1005.99
2022-09-21T05:22:13.475Z,1006.11
2022-09-21T05:23:16.748Z,1006.12
2022-09-21T05:24:13.450Z,1006.11
2022-09-21T05:25:13.440Z,1006.14
2022-09-21T05:26:13.425Z,1006.16
2022-09-21T05:28:13.406Z,1006.12
2022-09-21T05:29:13.389Z,1006.19
2022-09-21T05:30:13.384Z,1006.17
2022-09-21T05:31:18.087Z,1006.15
2022-09-21T05:32:13.361Z,1006.22
2022-09-21T05:33:13.339Z,1006.19
2022-09-21T05:34:13.324Z,1006.20
2022-09-21T05:35:13.341Z,1006.21
2022-09-21T05:36:13.301Z,1006.26
2022-09-21T05:37:13.288Z,1006.26
2022-09-21T05:39:13.263Z,1006.27
2022-09-21T05:40:13.332Z,1006.22
2022-09-21T05:41:13.239Z,1006.23
2022-09-21T05:42:13.224Z,1006.20
2022-09-21T05:43:13.213Z,1006.25
2022-09-21T05:44:13.204Z,1006.25
2022-09-21T05:45:13.190Z,1006.27
2022-09-21T05:46:13.303Z,1006.26
2022-09-21T05:47:13.164Z,1006.30
2022-09-21T05:48:13.150Z,1006.33
2022-09-21T05:50:13.124Z,1006.29
2022-09-21T05:51:13.138Z,1006.36
2022-09-21T05:52:13.099Z,1006.37
2022-09-21T05:53:13.089Z,1006.32
2022-09-21T05:54:13.075Z,1006.32
2022-09-21T05:55:13.067Z,1006.35
2022-09-21T05:56:13.050Z,1006.33
2022-09-21T05:57:13.044Z,1006.41
2022-09-21T05:58:13.027Z,1006.29
2022-09-21T05:59:13.015Z,1006.36
2022-09-21T06:01:13.011Z,1006.30
2022-09-21T06:02:13.035Z,1006.39
2022-09-21T06:03:17.441Z,1006.36
2022-09-21T06:04:12.949Z,1006.39
2022-09-21T06:05:12.940Z,1006.39
2022-09-21T06:06:12.925Z,1006.44
2022-09-21T06:07:12.949Z,1006.40
2022-09-21T06:08:12.899Z,1006.43
2022-09-21T06:09:12.887Z,1006.48
2022-09-21T06:10:12.875Z,1006.45
2022-09-21T06:12:12.850Z,1006.48
2022-09-21T06:13:12.838Z,1006.46
2022-09-21T06:14:12.825Z,1006.50
2022-09-21T06:15:12.814Z,1006.52
2022-09-21T06:16:12.800Z,1006.54
2022-09-21T06:17:12.788Z,1006.50
2022-09-21T06:18:17.491Z,1006.55
2022-09-21T06:19:12.767Z,1006.53
2022-09-21T06:20:12.749Z,1006.51
2022-09-21T06:21:12.737Z,1006.53
2022-09-21T06:23:12.767Z,1006.54
2022-09-21T06:24:12.699Z,1006.52
2022-09-21T06:25:12.687Z,1006.54
2022-09-21T06:26:12.673Z,1006.59
2022-09-21T06:27:12.664Z,1006.56
2022-09-21T06:28:12.650Z,1006.59
2022-09-21T06:29:12.637Z,1006.57
2022-09-21T06:30:12.622Z,1006.56
2022-09-21T06:31:12.648Z,1006.61
2022-09-21T06:32:12.598Z,1006.56
2022-09-21T06:34:12.574Z,1006.58
2022-09-21T06:35:12.560Z,1006.55
2022-09-21T06:36:12.546Z,1006.55
2022-09-21T06:37:12.536Z,1006.56
2022-09-21T06:38:12.520Z,1006.58
2022-09-21T06:39:12.532Z,1006.53
2022-09-21T06:40:12.530Z,1006.49
2022-09-21T06:41:15.231Z,1006.50
2022-09-21T06:42:12.470Z,1006.51
2022-09-21T06:43:12.456Z,1006.51
2022-09-21T06:45:12.430Z,1006.55
2022-09-21T06:46:12.483Z,1006.53
2022-09-21T06:47:12.406Z,1006.61
2022-09-21T06:48:12.392Z,1006.55
2022-09-21T06:49:12.378Z,1006.56
2022-09-21T06:50:12.362Z,1006.58
2022-09-21T06:51:12.351Z,1006.58
2022-09-21T06:52:12.339Z,1006.56
2022-09-21T06:53:12.327Z,1006.55
2022-09-21T06:54:12.312Z,1006.56
2022-09-21T06:56:12.290Z,1006.59
2022-09-21T06:57:12.271Z,1006.60
2022-09-21T06:58:12.257Z,1006.61
2022-09-21T06:59:12.245Z,1006.65
2022-09-21T07:00:12.230Z,1006.61
2022-09-21T07:01:12.346Z,1006.60
2022-09-21T07:02:12.296Z,1006.63
2022-09-21T07:03:12.200Z,1006.61
2022-09-21T07:04:12.176Z,1006.61
2022-09-21T07:05:12.166Z,1006.67
2022-09-21T07:07:12.140Z,1006.57
2022-09-21T07:10:17.164Z,1006.62
2022-09-21T07:11:14.123Z,1006.67
2022-09-21T07:12:12.071Z,1006.60
2022-09-21T07:13:12.059Z,1006.62
2022-09-21T07:14:12.044Z,1006.63
2022-09-21T07:15:12.040Z,1006.68
2022-09-21T07:16:12.063Z,1006.65
2022-09-21T07:18:11.990Z,1006.64
2022-09-21T07:19:12.271Z,1006.67
2022-09-21T07:20:11.965Z,1006.66
2022-09-21T07:21:11.957Z,1006.62
2022-09-21T07:22:11.939Z,1006.62
2022-09-21T07:23:11.926Z,1006.70
2022-09-21T07:24:12.718Z,1006.66
2022-09-21T07:25:11.900Z,1006.68
2022-09-21T07:26:11.887Z,1006.65
2022-09-21T07:27:11.895Z,1006.72
2022-09-21T07:29:11.849Z,1006.73
2022-09-21T07:30:11.832Z,1006.66
2022-09-21T07:31:11.838Z,1006.65
2022-09-21T07:32:11.807Z,1006.67
2022-09-21T07:33:11.797Z,1006.73
2022-09-21T07:34:11.781Z,1006.66
2022-09-21T07:35:11.776Z,1006.69
2022-09-21T07:36:11.757Z,1006.68
2022-09-21T07:37:11.745Z,1006.73
2022-09-21T07:38:11.731Z,1006.69
2022-09-21T07:40:11.752Z,1006.70
2022-09-21T07:41:11.691Z,1006.71
2022-09-21T07:42:11.679Z,1006.70
2022-09-21T07:43:11.690Z,1006.68
2022-09-21T07:44:11.652Z,1006.69
2022-09-21T07:45:11.655Z,1006.69
2022-09-21T07:46:11.626Z,1006.68
2022-09-21T07:47:11.616Z,1006.64
2022-09-21T07:48:11.601Z,1006.66
2022-09-21T07:49:11.594Z,1006.67
2022-09-21T07:51:11.564Z,1006.71
2022-09-21T07:52:11.550Z,1006.61
2022-09-21T07:53:11.537Z,1006.64
2022-09-21T07:54:11.525Z,1006.64
2022-09-21T07:55:11.509Z,1006.62
2022-09-21T07:56:11.496Z,1006.55
2022-09-21T07:57:11.486Z,1006.59
2022-09-21T07:58:11.470Z,1006.56
2022-09-21T07:59:11.484Z,1006.57
2022-09-21T08:00:11.444Z,1006.57
2022-09-21T08:02:11.459Z,1006.54
2022-09-21T08:03:11.407Z,1006.56
2022-09-21T08:04:11.394Z,1006.60
2022-09-21T08:05:11.383Z,1006.55
2022-09-21T08:06:11.367Z,1006.55
2022-09-21T08:07:11.357Z,1006.55
2022-09-21T08:08:11.342Z,1006.57
2022-09-21T08:09:11.330Z,1006.55
2022-09-21T08:10:11.321Z,1006.51
2022-09-21T08:11:11.306Z,1006.57
2022-09-21T08:13:11.280Z,1006.55
2022-09-21T08:14:11.266Z,1006.59
2022-09-21T08:15:30.613Z,1006.53
2022-09-21T08:16:13.288Z,1006.53
2022-09-21T08:17:11.229Z,1006.52
2022-09-21T08:18:11.215Z,1006.53
2022-09-21T08:19:11.204Z,1006.52
2022-09-21T08:20:11.188Z,1006.55
2022-09-21T08:21:12.155Z,1006.57
2022-09-21T08:22:11.162Z,1006.57
2022-09-21T08:24:11.136Z,1006.56
2022-09-21T08:25:11.124Z,1006.56
2022-09-21T08:26:11.110Z,1006.62
2022-09-21T08:27:11.099Z,1006.59
2022-09-21T08:28:11.082Z,1006.62
2022-09-21T08:29:11.073Z,1006.61
2022-09-21T08:30:11.058Z,1006.61
2022-09-21T08:31:11.281Z,1006.60
2022-09-21T08:32:22.825Z,1006.63
2022-09-21T08:34:11.005Z,1006.56
2022-09-21T08:35:10.996Z,1006.54
2022-09-21T08:36:10.980Z,1006.58
2022-09-21T08:37:10.966Z,1006.59
2022-09-21T08:38:10.959Z,1006.59
2022-09-21T08:39:10.941Z,1006.60
2022-09-21T08:40:10.969Z,1006.54
2022-09-21T08:41:10.914Z,1006.61
2022-09-21T08:42:10.906Z,1006.52
2022-09-21T08:43:10.890Z,1006.54
2022-09-21T08:45:10.861Z,1006.63
2022-09-21T08:46:11.027Z,1006.61
2022-09-21T08:47:10.858Z,1006.61
2022-09-21T08:48:10.825Z,1006.66
2022-09-21T08:49:10.809Z,1006.60
2022-09-21T08:50:10.799Z,1006.55
2022-09-21T08:51:10.784Z,1006.56
2022-09-21T08:52:13.487Z,1006.57
2022-09-21T08:53:10.759Z,1006.57
2022-09-21T08:54:10.745Z,1006.54
2022-09-21T08:56:10.719Z,1006.56
2022-09-21T08:57:10.705Z,1006.62
2022-09-21T08:58:10.693Z,1006.55
2022-09-21T08:59:10.680Z,1006.50
2022-09-21T09:00:10.668Z,1006.57
2022-09-21T09:01:10.728Z,1006.49
2022-09-21T09:02:10.735Z,1006.57
2022-09-21T09:03:10.655Z,1006.56
2022-09-21T09:04:10.619Z,1006.51
2022-09-21T09:05:10.602Z,1006.54
2022-09-21T09:07:10.575Z,1006.48
2022-09-21T09:08:10.565Z,1006.55
2022-09-21T09:09:10.607Z,1006.47
2022-09-21T09:10:10.537Z,1006.52
2022-09-21T09:11:10.522Z,1006.56
2022-09-21T09:12:11.356Z,1006.53
2022-09-21T09:13:10.497Z,1006.53
2022-09-21T09:14:10.485Z,1006.51
2022-09-21T09:15:10.471Z,1006.57
2022-09-21T09:16:10.508Z,1006.52
2022-09-21T09:18:10.433Z,1006.52
2022-09-21T09:19:10.444Z,1006.51
2022-09-21T09:20:10.407Z,1006.51
2022-09-21T09:21:10.572Z,1006.50
2022-09-21T09:22:10.381Z,1006.48
2022-09-21T09:23:10.366Z,1006.45
2022-09-21T09:24:10.356Z,1006.47
2022-09-21T09:25:10.341Z,1006.44
2022-09-21T09:26:10.332Z,1006.48
2022-09-21T09:27:10.316Z,1006.46
2022-09-21T09:29:10.295Z,1006.45
2022-09-21T09:30:10.280Z,1006.45
2022-09-21T09:31:10.294Z,1006.38
2022-09-21T09:32:10.252Z,1006.40
2022-09-21T09:33:10.242Z,1006.43
2022-09-21T09:34:10.225Z,1006.46
2022-09-21T09:35:10.235Z,1006.39
2022-09-21T09:36:10.201Z,1006.33
2022-09-21T09:37:10.191Z,1006.38
2022-09-21T09:38:10.173Z,1006.45
2022-09-21T09:40:10.216Z,1006.36
2022-09-21T09:41:10.135Z,1006.47
2022-09-21T09:42:10.122Z,1006.44
2022-09-21T09:43:10.114Z,1006.30
2022-09-21T09:44:10.096Z,1006.39
2022-09-21T09:45:10.084Z,1006.28
2022-09-21T09:46:12.807Z,1006.33
2022-09-21T09:47:10.058Z,1006.38
2022-09-21T09:48:10.047Z,1006.22
2022-09-21T09:49:10.033Z,1006.20
2022-09-21T09:51:10.031Z,1006.21
2022-09-21T09:52:09.998Z,1006.27
2022-09-21T09:53:09.984Z,1006.33
2022-09-21T09:54:10.431Z,1006.40
2022-09-21T09:55:09.959Z,1006.31
2022-09-21T09:56:09.953Z,1006.21
2022-09-21T09:57:09.933Z,1006.26
2022-09-21T09:58:09.922Z,1006.15
2022-09-21T09:59:09.916Z,1006.21
2022-09-21T10:00:09.899Z,1006.11
2022-09-21T10:02:09.923Z,1006.14
2022-09-21T10:03:09.859Z,1006.19
2022-09-21T10:04:09.911Z,1006.18
2022-09-21T10:05:09.837Z,1006.06
2022-09-21T10:06:09.826Z,1006.07
2022-09-21T10:07:09.838Z,1006.11
2022-09-21T10:08:09.805Z,1006.00
2022-09-21T10:09:09.791Z,1006.08
2022-09-21T10:10:09.780Z,1006.04
2022-09-21T10:11:09.768Z,1005.96
2022-09-21T10:13:09.746Z,1005.97
2022-09-21T10:14:09.739Z,1005.91
2022-09-21T10:15:09.723Z,1005.93
2022-09-21T10:16:09.888Z,1005.91
2022-09-21T10:17:09.700Z,1005.88
2022-09-21T10:18:09.688Z,1005.92
2022-09-21T10:19:09.673Z,1005.88
2022-09-21T10:20:09.661Z,1005.79
2022-09-21T10:21:09.668Z,1005.82
2022-09-21T10:22:09.637Z,1005.75
2022-09-21T10:24:09.615Z,1005.77
2022-09-21T10:25:09.602Z,1005.75
2022-09-21T10:26:09.594Z,1005.68
2022-09-21T10:27:09.582Z,1005.68
2022-09-21T10:28:09.569Z,1005.69
2022-09-21T10:29:09.556Z,1005.63
2022-09-21T10:30:09.545Z,1005.68
2022-09-21T10:31:09.598Z,1005.71
2022-09-21T10:32:14.247Z,1005.67
2022-09-21T10:33:09.509Z,1005.61
2022-09-21T10:35:09.486Z,1005.56
2022-09-21T10:36:09.476Z,1005.58
2022-09-21T10:37:09.462Z,1005.53
2022-09-21T10:38:09.458Z,1005.61
2022-09-21T10:39:09.464Z,1005.54
2022-09-21T10:40:09.494Z,1005.55
2022-09-21T10:41:09.418Z,1005.60
2022-09-21T10:42:09.408Z,1005.53
2022-09-21T10:43:09.417Z,1005.55
2022-09-21T10:44:09.396Z,1005.52
2022-09-21T10:46:09.404Z,1005.48
2022-09-21T10:47:11.146Z,1005.43
2022-09-21T10:48:09.347Z,1005.41
2022-09-21T10:49:09.332Z,1005.47
2022-09-21T10:50:09.326Z,1005.40
2022-09-21T10:51:09.304Z,1005.44
2022-09-21T10:52:09.294Z,1005.43
2022-09-21T10:53:09.287Z,1005.34
2022-09-21T10:54:09.382Z,1005.47
2022-09-21T10:55:09.286Z,1005.42
2022-09-21T10:57:09.234Z,1005.38
2022-09-21T10:58:09.226Z,1005.36
2022-09-21T10:59:09.211Z,1005.38
2022-09-21T11:00:09.202Z,1005.37
2022-09-21T11:01:09.226Z,1005.35
2022-09-21T11:02:09.182Z,1005.35
2022-09-21T11:03:09.227Z,1005.32
2022-09-21T11:04:09.157Z,1005.37
2022-09-21T11:05:09.143Z,1005.25
2022-09-21T11:06:09.135Z,1005.31
2022-09-21T11:08:09.110Z,1005.26
2022-09-21T11:09:09.098Z,1005.26
2022-09-21T11:10:09.087Z,1005.31
2022-09-21T11:11:09.100Z,1005.26
2022-09-21T11:12:09.065Z,1005.27
2022-09-21T11:13:09.054Z,1005.25
2022-09-21T11:14:09.044Z,1005.18
2022-09-21T11:15:09.029Z,1005.13
2022-09-21T11:16:09.073Z,1005.25
2022-09-21T11:17:09.006Z,1005.20
2022-09-21T11:19:08.990Z,1005.25
2022-09-21T11:20:08.973Z,1005.15
2022-09-21T11:21:08.961Z,1005.15
2022-09-21T11:22:08.954Z,1005.18
2022-09-21T11:23:08.938Z,1005.07
2022-09-21T11:24:08.966Z,1005.06
2022-09-21T11:25:08.916Z,1005.06
2022-09-21T11:26:08.905Z,1005.12
2022-09-21T11:27:08.916Z,1005.08
2022-09-21T11:28:08.883Z,1005.03
2022-09-21T11:30:08.861Z,1004.95
2022-09-21T11:31:08.927Z,1004.97
2022-09-21T11:32:08.838Z,1004.98
2022-09-21T11:33:08.824Z,1004.98
2022-09-21T11:34:08.817Z,1004.89
2022-09-21T11:35:08.802Z,1004.91
2022-09-21T11:36:08.794Z,1004.88
2022-09-21T11:37:08.777Z,1004.91
2022-09-21T11:38:08.768Z,1004.99
2022-09-21T11:39:08.827Z,1004.95
2022-09-21T11:41:08.733Z,1004.90
2022-09-21T11:42:08.725Z,1004.89
2022-09-21T11:43:08.734Z,1004.90
2022-09-21T11:44:10.860Z,1004.87
2022-09-21T11:45:08.687Z,1004.87
2022-09-21T11:46:08.759Z,1004.85
2022-09-21T11:47:08.666Z,1004.82
2022-09-21T11:48:08.653Z,1004.81
2022-09-21T11:49:08.642Z,1004.79
2022-09-21T11:50:29.070Z,1004.84
2022-09-21T11:52:08.611Z,1004.82
2022-09-21T11:53:08.595Z,1004.83
2022-09-21T11:54:08.586Z,1004.86
2022-09-21T11:55:08.573Z,1004.78
2022-09-21T11:56:08.563Z,1004.70
2022-09-21T11:57:08.547Z,1004.73
2022-09-21T11:58:08.538Z,1004.73
2022-09-21T11:59:08.572Z,1004.63
2022-09-21T12:00:08.514Z,1004.74
2022-09-21T12:01:08.502Z,1004.68
2022-09-21T12:03:08.476Z,1004.74
2022-09-21T12:04:08.465Z,1004.65
2022-09-21T12:05:08.453Z,1004.63
2022-09-21T12:06:08.443Z,1004.64
2022-09-21T12:07:08.431Z,1004.62
2022-09-21T12:08:08.422Z,1004.63
2022-09-21T12:09:08.427Z,1004.63
2022-09-21T12:10:10.423Z,1004.64
2022-09-21T12:11:08.390Z,1004.63
2022-09-21T12:12:08.378Z,1004.64
2022-09-21T12:14:08.355Z,1004.54
2022-09-21T12:15:08.452Z,1004.58
2022-09-21T12:16:08.332Z,1004.59
2022-09-21T12:17:08.380Z,1004.56
2022-09-21T12:18:08.309Z,1004.56
2022-09-21T12:19:08.295Z,1004.54
2022-09-21T12:20:08.284Z,1004.57
2022-09-21T12:21:08.276Z,1004.56
2022-09-21T12:22:08.263Z,1004.53
2022-09-21T12:23:08.249Z,1004.60
2022-09-21T12:25:08.229Z,1004.51
2022-09-21T12:26:08.220Z,1004.48
2022-09-21T12:27:08.207Z,1004.48
2022-09-21T12:28:08.195Z,1004.47
2022-09-21T12:29:08.183Z,1004.46
2022-09-21T12:30:08.176Z,1004.45
2022-09-21T12:31:08.250Z,1004.49
2022-09-21T12:32:08.153Z,1004.43
2022-09-21T12:33:08.140Z,1004.36
2022-09-21T12:34:08.131Z,1004.39
2022-09-21T12:36:08.110Z,1004.37
2022-09-21T12:37:08.095Z,1004.37
2022-09-21T12:38:08.089Z,1004.40
2022-09-21T12:39:08.075Z,1004.42
2022-09-21T12:40:08.152Z,1004.42
2022-09-21T12:41:08.050Z,1004.39
2022-09-21T12:42:08.038Z,1004.31
2022-09-21T12:43:09.374Z,1004.36
2022-09-21T12:44:08.049Z,1004.34
2022-09-21T12:45:08.002Z,1004.28
2022-09-21T12:47:08.004Z,1004.25
2022-09-21T12:48:07.967Z,1004.30
2022-09-21T12:49:07.955Z,1004.28
2022-09-21T12:50:07.944Z,1004.26
2022-09-21T12:51:07.931Z,1004.25
2022-09-21T12:52:07.920Z,1004.21
2022-09-21T12:53:07.906Z,1004.20
2022-09-21T12:54:07.895Z,1004.15
2022-09-21T12:55:07.899Z,1004.21
2022-09-21T12:56:09.978Z,1004.08
2022-09-21T12:58:15.557Z,1004.13
2022-09-21T12:59:09.834Z,1004.16
2022-09-21T13:00:07.823Z,1004.11
2022-09-21T13:01:07.871Z,1004.07
2022-09-21T13:02:07.965Z,1004.04
2022-09-21T13:03:09.922Z,1004.06
2022-09-21T13:04:07.774Z,1004.02
2022-09-21T13:05:07.763Z,1004.04
2022-09-21T13:06:07.749Z,1004.06
2022-09-21T13:07:07.738Z,1004.03
2022-09-21T13:09:10.076Z,1003.99
2022-09-21T13:10:07.709Z,1003.98
2022-09-21T13:11:07.690Z,1004.00
2022-09-21T13:12:07.677Z,1004.02
2022-09-21T13:13:07.668Z,1003.96
2022-09-21T13:14:07.653Z,1003.99
2022-09-21T13:15:07.644Z,1003.94
2022-09-21T13:16:07.684Z,1003.94
2022-09-21T13:17:07.621Z,1003.95
2022-09-21T13:18:07.610Z,1003.92
2022-09-21T13:20:07.581Z,1003.91